Time;durP1;ratioP1;P1;durP2;ratioP2;P2;SDS_P1;SDS_P2;PMS_P1;PMS_P2;Temp;Humidity;BMP_temperature;BMP_pressure;BME280_temperature;BME280_humidity;BME280_pressure;Samples;Min_cycle;Max_cycle;Signal;HPM_P1;HPM_P2
2022/09/03 00:00:50;;;;;;;3.80;1.60;;;;;;;-145.69;100.00;70853.22;5054384;28;20218;-79
2022/09/03 00:03:24;;;;;;;2.17;1.70;;;;;;;-145.69;100.00;70849.25;5073333;28;20203;-79
2022/09/03 00:06:01;;;;;;;2.53;1.70;;;;;;;-145.69;100.00;70845.28;5074126;28;20751;-79
2022/09/03 00:08:32;;;;;;;1.92;1.42;;;;;;;-145.69;100.00;70847.25;5073880;28;20675;-79
2022/09/03 00:11:04;;;;;;;3.42;1.80;;;;;;;-145.69;100.00;70843.28;5074406;28;20195;-79
2022/09/03 00:13:36;;;;;;;4.00;1.60;;;;;;;-145.69;100.00;70847.25;5072908;28;20917;-79
2022/09/03 00:16:09;;;;;;;4.55;1.63;;;;;;;-145.69;100.00;70843.28;5074244;28;20198;-77
2022/09/03 00:18:42;;;;;;;4.28;1.58;;;;;;;-145.69;100.00;70843.28;5073375;28;20198;-78
2022/09/03 00:21:12;;;;;;;3.22;1.60;;;;;;;-145.69;100.00;70841.28;5073875;28;20206;-79
2022/09/03 00:23:41;;;;;;;2.38;1.60;;;;;;;-145.69;100.00;70839.31;5074027;28;20198;-79
2022/09/03 00:26:24;;;;;;;2.95;1.75;;;;;;;-145.69;100.00;70843.28;5073848;28;20194;-79
2022/09/03 00:28:57;;;;;;;5.25;1.88;;;;;;;-145.69;100.00;70841.28;5073526;28;20238;-79
2022/09/03 00:31:29;;;;;;;3.78;1.90;;;;;;;-145.69;100.00;70837.31;5073722;28;20563;-78
2022/09/03 00:33:59;;;;;;;2.08;1.50;;;;;;;-145.69;100.00;70835.31;5074049;28;20202;-81
2022/09/03 00:36:33;;;;;;;4.15;1.80;;;;;;;-145.69;100.00;70837.31;5073583;28;20214;-81
2022/09/03 00:39:00;;;;;;;3.45;1.70;;;;;;;-145.69;100.00;70851.25;5074307;28;20206;-80
2022/09/03 00:41:37;;;;;;;6.70;1.90;;;;;;;-145.69;100.00;70859.19;5073267;28;20438;-79
2022/09/03 00:44:26;;;;;;;2.00;1.50;;;;;;;-145.69;100.00;70871.13;5073675;28;20256;-79
2022/09/03 00:47:00;;;;;;;3.40;1.60;;;;;;;-145.69;100.00;70871.13;5073181;28;20203;-78
2022/09/03 00:49:37;;;;;;;2.35;1.60;;;;;;;-145.69;100.00;70873.13;5073334;28;20280;-79
2022/09/03 00:52:12;;;;;;;5.80;1.77;;;;;;;-145.69;100.00;70889.03;5072236;28;20435;-78
2022/09/03 00:54:46;;;;;;;4.85;2.13;;;;;;;-145.69;100.00;70895.00;5072967;28;20202;-81
2022/09/03 00:57:29;;;;;;;3.45;2.03;;;;;;;-145.69;100.00;70910.94;5073154;28;20198;-80
2022/09/03 01:00:03;;;;;;;4.00;2.15;;;;;;;-145.69;100.00;70928.84;5073406;28;20680;-78
2022/09/03 01:02:45;;;;;;;5.57;1.60;;;;;;;-145.69;100.00;70934.81;5073027;28;20197;-80
2022/09/03 01:05:24;;;;;;;4.70;1.83;;;;;;;-145.69;100.00;70950.72;5073418;28;20252;-78
2022/09/03 01:08:00;;;;;;;3.05;2.10;;;;;;;-145.69;100.00;70974.59;5073217;28;20229;-78
2022/09/03 01:10:37;;;;;;;2.88;1.90;;;;;;;-145.69;100.00;70998.47;5073036;28;20230;-77
2022/09/03 01:13:11;;;;;;;3.03;1.83;;;;;;;-145.69;100.00;71008.41;5073379;28;20201;-79
2022/09/03 01:15:50;;;;;;;5.75;2.40;;;;;;;-145.69;100.00;71016.38;5073040;28;20310;-79
2022/09/03 01:18:25;;;;;;;8.32;2.10;;;;;;;-145.69;100.00;71036.28;5073260;28;20203;-78
2022/09/03 01:21:06;;;;;;;7.07;2.15;;;;;;;-145.69;100.00;71048.22;5060053;28;20229;-79
2022/09/03 01:23:47;;;;;;;2.33;1.92;;;;;;;-145.69;100.00;71050.22;5053063;28;20253;-79
2022/09/03 01:26:30;;;;;;;3.50;1.92;;;;;;;-145.69;100.00;71046.22;5052960;28;20605;-78
2022/09/03 01:29:06;;;;;;;4.80;2.40;;;;;;;-145.69;100.00;71054.19;5069326;28;20213;-77
2022/09/03 01:31:39;;;;;;;6.60;2.10;;;;;;;-145.69;100.00;71050.22;5072566;28;20194;-77
2022/09/03 01:34:15;;;;;;;4.72;2.10;;;;;;;-145.69;100.00;71058.16;5072900;28;20240;-78
2022/09/03 01:36:52;;;;;;;4.55;2.25;;;;;;;-145.69;100.00;71054.19;5073009;28;20202;-78
2022/09/03 01:39:26;;;;;;;5.32;2.95;;;;;;;-145.69;100.00;71056.16;5072951;28;20213;-81
2022/09/03 01:42:14;;;;;;;4.45;2.50;;;;;;;-145.69;100.00;71018.38;5072141;28;20202;-80
2022/09/03 01:45:20;;;;;;;11.18;4.05;;;;;;;-145.69;100.00;71016.38;5072980;28;20289;-80
2022/09/03 01:48:01;;;;;;;6.82;2.50;;;;;;;-145.69;100.00;71010.41;4991441;28;20205;-79
2022/09/03 01:50:38;;;;;;;4.32;2.38;;;;;;;-145.69;100.00;71014.38;5061555;28;20242;-79
2022/09/03 01:53:11;;;;;;;3.47;2.30;;;;;;;-145.69;100.00;71014.38;5059510;28;20195;-80
2022/09/03 01:55:55;;;;;;;4.05;2.58;;;;;;;-145.69;100.00;71020.34;5072566;28;20438;-80
2022/09/03 01:58:30;;;;;;;5.80;2.65;;;;;;;-145.69;100.00;71030.31;5072644;28;20206;-78
2022/09/03 02:01:03;;;;;;;3.67;2.72;;;;;;;-145.69;100.00;71036.28;5072718;28;20198;-80
2022/09/03 02:03:37;;;;;;;6.65;2.60;;;;;;;-145.69;100.00;71028.31;5072678;28;20202;-78
2022/09/03 02:06:06;;;;;;;5.63;3.05;;;;;;;-145.69;100.00;71024.34;5072652;28;20248;-79
2022/09/03 02:08:33;;;;;;;8.65;2.65;;;;;;;-145.69;100.00;71030.31;5076004;28;20264;-81
2022/09/03 02:11:01;;;;;;;2.97;2.25;;;;;;;-145.69;100.00;71016.38;5076360;28;20234;-79
2022/09/03 02:13:35;;;;;;;5.13;2.50;;;;;;;-145.69;100.00;71020.34;5076676;28;20209;-79
2022/09/03 02:16:11;;;;;;;4.53;3.42;;;;;;;-145.69;100.00;70996.47;5076586;28;20239;-79
2022/09/03 02:18:42;;;;;;;3.97;3.10;;;;;;;-145.69;100.00;70982.56;5076455;28;20568;-79
2022/09/03 02:21:09;;;;;;;3.75;3.03;;;;;;;-145.69;100.00;70964.66;5076059;28;20206;-79
2022/09/03 02:23:39;;;;;;;3.72;2.67;;;;;;;-145.69;100.00;70944.75;5076356;28;20230;-79
2022/09/03 02:26:08;;;;;;;4.95;3.10;;;;;;;-145.69;100.00;70940.78;5076507;28;20276;-80
2022/09/03 02:28:34;;;;;;;5.10;2.92;;;;;;;-145.69;100.00;70938.78;5076354;28;20260;-78
2022/09/03 02:31:01;;;;;;;3.72;2.90;;;;;;;-145.69;100.00;70930.81;5076112;28;20222;-79
2022/09/03 02:33:30;;;;;;;8.38;2.70;;;;;;;-145.69;100.00;70930.81;5075921;28;20198;-79
2022/09/03 02:35:56;;;;;;;5.00;3.28;;;;;;;-145.69;100.00;70887.06;5076124;28;20203;-81
2022/09/03 02:38:25;;;;;;;4.75;3.08;;;;;;;-145.69;100.00;70887.06;5076171;28;20199;-80
2022/09/03 02:40:53;;;;;;;9.98;3.42;;;;;;;-145.69;100.00;70825.38;5076174;28;20294;-80
2022/09/03 02:43:26;;;;;;;4.70;3.03;;;;;;;-145.69;100.00;70809.47;5076050;28;20194;-79
2022/09/03 02:45:58;;;;;;;5.55;2.95;;;;;;;-145.69;100.00;70835.31;5075937;28;20253;-80
2022/09/03 02:48:25;;;;;;;4.50;3.40;;;;;;;-145.69;100.00;70819.41;5075793;28;20611;-79
2022/09/03 02:50:52;;;;;;;6.95;3.35;;;;;;;-145.69;100.00;70845.28;5075574;28;20246;-79
2022/09/03 02:53:19;;;;;;;6.80;2.53;;;;;;;-145.69;100.00;70904.97;5075664;28;20206;-78
2022/09/03 02:55:46;;;;;;;7.55;3.25;;;;;;;-145.69;100.00;70932.81;5075858;28;20607;-79
2022/09/03 02:58:12;;;;;;;8.15;3.20;;;;;;;-145.69;100.00;70934.81;5075735;28;20203;-79
2022/09/03 03:00:39;;;;;;;6.90;3.42;;;;;;;-145.69;100.00;70930.81;5075898;28;20198;-79
2022/09/03 03:03:06;;;;;;;6.15;3.60;;;;;;;-145.69;100.00;70916.91;5075528;28;20198;-80
2022/09/03 03:05:43;;;;;;;7.65;3.50;;;;;;;-145.69;100.00;70920.88;5075543;28;20203;-79
2022/09/03 03:08:13;;;;;;;5.57;3.55;;;;;;;-145.69;100.00;70902.97;5075588;28;20556;-80
2022/09/03 03:10:40;;;;;;;5.18;3.20;;;;;;;-145.69;100.00;70908.94;5075448;28;20222;-79
2022/09/03 03:13:07;;;;;;;5.57;3.55;;;;;;;-145.69;100.00;70877.09;5075699;28;20206;-79
2022/09/03 03:15:33;;;;;;;4.00;2.78;;;;;;;-145.69;100.00;70845.28;5075342;28;20225;-78
2022/09/03 03:18:00;;;;;;;5.57;2.85;;;;;;;-145.69;100.00;70797.53;5075290;28;20252;-81
2022/09/03 03:20:26;;;;;;;4.60;2.75;;;;;;;-145.69;100.00;70783.59;5075412;28;20206;-78
2022/09/03 03:22:53;;;;;;;4.15;2.63;;;;;;;-145.69;100.00;70757.72;5075151;28;20241;-78
2022/09/03 03:25:20;;;;;;;4.07;3.00;;;;;;;-145.69;100.00;70769.66;5075200;28;20202;-79
2022/09/03 03:27:47;;;;;;;4.70;3.00;;;;;;;-145.69;100.00;70767.69;5075206;28;20259;-78
2022/09/03 03:30:14;;;;;;;4.05;3.05;;;;;;;-145.69;100.00;70749.78;5075132;28;20689;-78
2022/09/03 03:32:40;;;;;;;4.82;3.00;;;;;;;-145.69;100.00;70767.69;5074942;28;20546;-80
2022/09/03 03:35:07;;;;;;;3.83;2.70;;;;;;;-145.69;100.00;70801.50;5075116;28;20257;-80
2022/09/03 03:37:34;;;;;;;4.20;3.10;;;;;;;-145.69;100.00;70835.31;5075057;28;20281;-80
2022/09/03 03:40:01;;;;;;;5.15;3.00;;;;;;;-145.69;100.00;70849.25;5075028;28;20611;-79
2022/09/03 03:42:29;;;;;;;5.07;2.85;;;;;;;-145.69;100.00;70857.22;5074771;28;20592;-79
2022/09/03 03:44:55;;;;;;;5.25;3.40;;;;;;;-145.69;100.00;70801.50;5074765;28;20206;-80
2022/09/03 03:47:22;;;;;;;3.38;2.72;;;;;;;-145.69;100.00;70789.56;5067431;28;20195;-79
2022/09/03 03:49:48;;;;;;;4.78;2.47;;;;;;;-145.69;100.00;70797.53;5054554;28;20235;-79
2022/09/03 03:52:15;;;;;;;3.55;2.72;;;;;;;-145.69;100.00;70789.56;5054707;28;20210;-79
2022/09/03 03:54:41;;;;;;;3.38;2.22;;;;;;;-145.69;100.00;70791.56;5054652;28;20200;-79
2022/09/03 03:57:07;;;;;;;4.20;2.78;;;;;;;-145.69;100.00;70801.50;5054482;28;20654;-80
2022/09/03 03:59:35;;;;;;;4.10;2.70;;;;;;;-145.69;100.00;70825.38;5054471;28;20822;-80
2022/09/03 04:02:02;;;;;;;3.85;2.97;;;;;;;-145.69;100.00;70865.16;5054616;28;20562;-79
2022/09/03 04:04:28;;;;;;;4.78;2.97;;;;;;;-145.69;100.00;70881.09;5054549;28;20237;-79
2022/09/03 04:06:54;;;;;;;3.50;2.85;;;;;;;-145.69;100.00;70895.00;5054499;28;20207;-80
2022/09/03 04:09:21;;;;;;;6.78;3.03;;;;;;;-145.69;100.00;70908.94;5054318;28;20665;-80
2022/09/03 04:11:47;;;;;;;5.85;2.65;;;;;;;-145.69;100.00;70924.84;5062424;28;20226;-79
2022/09/03 04:14:14;;;;;;;3.15;2.63;;;;;;;-145.69;100.00;70924.84;5074529;28;20260;-80
2022/09/03 04:16:42;;;;;;;5.75;3.25;;;;;;;-145.69;100.00;70932.81;5074744;28;20203;-78
2022/09/03 04:19:08;;;;;;;4.47;3.00;;;;;;;-145.69;100.00;70942.75;5074592;28;20673;-79
2022/09/03 04:21:35;;;;;;;7.35;2.97;;;;;;;-145.69;100.00;70948.72;5074214;28;20194;-78
2022/09/03 04:24:04;;;;;;;7.00;3.47;;;;;;;-145.69;100.00;70956.69;5074196;28;20203;-78
2022/09/03 04:26:32;;;;;;;10.82;3.80;;;;;;;-145.69;100.00;70956.69;5073820;28;20665;-78
2022/09/03 04:28:59;;;;;;;5.10;3.55;;;;;;;-145.69;100.00;70958.69;5073793;28;20203;-78
2022/09/03 04:31:27;;;;;;;4.85;3.40;;;;;;;-145.69;100.00;70964.66;5073438;28;20231;-78
2022/09/03 04:33:54;;;;;;;4.22;3.28;;;;;;;-145.69;100.00;70946.75;5073890;28;20202;-78
2022/09/03 04:36:22;;;;;;;4.07;2.80;;;;;;;-145.69;100.00;70942.75;5073857;28;20207;-78
2022/09/03 04:38:51;;;;;;;4.43;3.00;;;;;;;-145.69;100.00;70936.78;5073662;28;20198;-78
2022/09/03 04:41:19;;;;;;;6.55;3.40;;;;;;;-145.69;100.00;70928.84;5073708;28;20195;-78
2022/09/03 04:43:47;;;;;;;4.32;2.90;;;;;;;-145.69;100.00;70920.88;5073771;28;20260;-80
2022/09/03 04:46:15;;;;;;;5.63;3.08;;;;;;;-145.69;100.00;70928.84;5073645;28;20211;-80
2022/09/03 04:48:42;;;;;;;5.55;2.28;;;;;;;-145.69;100.00;70930.81;5073679;28;20234;-79
2022/09/03 04:51:12;;;;;;;3.00;2.40;;;;;;;-145.69;100.00;70922.88;5073395;28;20708;-78
2022/09/03 04:53:41;;;;;;;5.97;2.75;;;;;;;-145.69;100.00;70932.81;5073347;28;20245;-79
2022/09/03 04:56:13;;;;;;;6.07;2.50;;;;;;;-145.69;100.00;70936.78;5073232;28;20206;-79
2022/09/03 04:58:39;;;;;;;3.80;2.50;;;;;;;-145.69;100.00;70930.81;5073510;28;20203;-80
2022/09/03 05:01:08;;;;;;;2.92;2.22;;;;;;;-145.69;100.00;70908.94;5073451;28;20210;-80
2022/09/03 05:03:36;;;;;;;3.85;2.60;;;;;;;-145.69;100.00;70904.97;5073314;28;20206;-80
2022/09/03 05:06:04;;;;;;;8.43;2.78;;;;;;;-145.69;100.00;70916.91;5073192;28;20218;-80
2022/09/03 05:08:36;;;;;;;2.70;2.15;;;;;;;-145.69;100.00;70910.94;5073311;28;20268;-79
2022/09/03 05:11:02;;;;;;;3.78;1.95;;;;;;;-145.69;100.00;70895.00;5072917;28;20733;-80
2022/09/03 05:13:29;;;;;;;3.60;2.00;;;;;;;-145.69;100.00;70897.00;5073154;28;20202;-79
2022/09/03 05:15:59;;;;;;;2.80;2.17;;;;;;;-145.69;100.00;70879.09;5072177;28;20449;-79
2022/09/03 05:18:25;;;;;;;3.60;2.20;;;;;;;-145.69;100.00;70877.09;5073175;28;20483;-79
2022/09/03 05:20:58;;;;;;;3.38;2.53;;;;;;;-145.69;100.00;70877.09;5073212;28;20261;-79
2022/09/03 05:23:25;;;;;;;3.13;1.75;;;;;;;-145.69;100.00;70871.13;5073197;28;20554;-79
2022/09/03 05:25:57;;;;;;;2.35;1.77;;;;;;;-145.69;100.00;70867.16;5073025;28;20602;-79
2022/09/03 05:28:25;;;;;;;2.42;1.92;;;;;;;-145.69;100.00;70863.19;5073086;28;20198;-79
2022/09/03 05:30:59;;;;;;;2.20;1.98;;;;;;;-145.69;100.00;70835.31;5072728;28;20222;-79
2022/09/03 05:33:26;;;;;;;8.00;2.08;;;;;;;-145.69;100.00;70823.38;5073142;28;20305;-79
2022/09/03 05:35:53;;;;;;;2.42;1.70;;;;;;;-145.69;100.00;70813.44;5073018;28;20205;-79
2022/09/03 05:38:20;;;;;;;2.83;1.85;;;;;;;-145.69;100.00;70807.47;5072973;28;20245;-80
2022/09/03 05:40:46;;;;;;;2.40;1.75;;;;;;;-145.69;100.00;70795.53;5072504;28;20214;-79
2022/09/03 05:43:16;;;;;;;5.03;1.95;;;;;;;-145.69;100.00;70769.66;5072957;28;20195;-79
2022/09/03 05:45:42;;;;;;;1.70;1.45;;;;;;;-145.69;100.00;70749.78;5072832;28;20203;-79
2022/09/03 05:48:08;;;;;;;2.17;1.67;;;;;;;-145.69;100.00;70739.81;5073106;28;20210;-78
2022/09/03 05:50:35;;;;;;;3.10;1.77;;;;;;;-145.69;100.00;70739.81;5072607;28;20242;-79
2022/09/03 05:53:02;;;;;;;2.40;1.70;;;;;;;-145.69;100.00;70745.78;5062812;28;20203;-78
2022/09/03 05:55:28;;;;;;;3.60;1.98;;;;;;;-145.69;100.00;70761.72;5052769;28;20598;-79
2022/09/03 05:57:55;;;;;;;2.10;1.70;;;;;;;-145.69;100.00;70763.69;5053001;28;20207;-81
2022/09/03 06:00:23;;;;;;;4.07;2.20;;;;;;;-145.69;100.00;70759.72;5052916;28;20204;-79
2022/09/03 06:02:52;;;;;;;3.03;2.20;;;;;;;-145.69;100.00;70741.81;5052879;28;20226;-79
2022/09/03 06:05:19;;;;;;;3.58;2.10;;;;;;;-145.69;100.00;70721.91;5052683;28;20207;-79
2022/09/03 06:07:47;;;;;;;2.85;1.73;;;;;;;-145.69;100.00;70700.03;5052545;28;20199;-79
2022/09/03 06:10:15;;;;;;;3.47;2.08;;;;;;;-145.69;100.00;70658.25;5052460;28;20222;-80
2022/09/03 06:12:41;;;;;;;2.45;1.83;;;;;;;-145.69;100.00;70630.41;5069096;28;20199;-80
2022/09/03 06:15:09;;;;;;;3.35;2.30;;;;;;;-145.69;100.00;70630.41;5072654;28;20256;-79
2022/09/03 06:17:37;;;;;;;2.75;2.20;;;;;;;-145.69;100.00;70626.41;5072571;28;20214;-79
2022/09/03 06:20:04;;;;;;;3.58;1.90;;;;;;;-145.69;100.00;70614.47;5072480;28;20711;-80
2022/09/03 06:22:31;;;;;;;2.75;2.10;;;;;;;-145.69;100.00;70604.53;5072509;28;20199;-78
2022/09/03 06:24:57;;;;;;;4.70;1.80;;;;;;;-145.69;100.00;70608.53;5072394;28;20561;-80
2022/09/03 06:27:23;;;;;;;3.20;1.92;;;;;;;-145.69;100.00;70584.66;5072293;28;20205;-79
2022/09/03 06:29:50;;;;;;;2.03;1.50;;;;;;;-145.69;100.00;70574.69;5072323;28;20658;-79
2022/09/03 06:32:17;;;;;;;4.10;2.00;;;;;;;-145.69;100.00;70588.63;5072536;28;20230;-79
2022/09/03 06:34:45;;;;;;;1.98;1.63;;;;;;;-145.69;100.00;70566.75;5072461;28;20210;-79
2022/09/03 06:37:11;;;;;;;3.38;1.83;;;;;;;-145.69;100.00;70582.66;5072246;28;20653;-79
2022/09/03 06:39:38;;;;;;;2.28;1.67;;;;;;;-145.69;100.00;70570.72;5072248;28;20202;-80
2022/09/03 06:42:04;;;;;;;3.40;1.52;;;;;;;-145.69;100.00;70574.69;5072381;28;20191;-79
2022/09/03 06:44:31;;;;;;;4.15;1.50;;;;;;;-145.69;100.00;70576.69;5072534;28;20206;-78
2022/09/03 06:47:00;;;;;;;2.40;1.60;;;;;;;-145.69;100.00;70614.47;5072443;28;20202;-79
2022/09/03 06:49:27;;;;;;;2.78;1.65;;;;;;;-145.69;100.00;70618.47;5072029;28;20230;-80
2022/09/03 06:51:54;;;;;;;5.75;1.60;;;;;;;-145.69;100.00;70620.44;5072200;28;20269;-79
2022/09/03 06:54:24;;;;;;;2.92;1.45;;;;;;;-145.69;100.00;70614.47;5074837;28;20195;-79
2022/09/03 06:56:50;;;;;;;4.38;2.03;;;;;;;-145.69;100.00;70626.41;5075762;28;20206;-80
2022/09/03 06:59:17;;;;;;;2.40;1.73;;;;;;;-145.69;100.00;70618.47;5075901;28;20195;-79
2022/09/03 07:01:44;;;;;;;1.67;1.40;;;;;;;-145.69;100.00;70636.38;5075709;28;20205;-80
2022/09/03 07:04:11;;;;;;;3.65;1.58;;;;;;;-145.69;100.00;70632.38;5075582;28;20230;-79
2022/09/03 07:06:39;;;;;;;2.53;1.63;;;;;;;-145.69;100.00;70634.38;5075568;28;20198;-80
2022/09/03 07:09:08;;;;;;;1.83;1.20;;;;;;;-145.69;100.00;70638.34;5075510;28;20199;-79
2022/09/03 07:11:45;;;;;;;1.63;1.20;;;;;;;-145.69;99.48;70634.38;5075426;28;20588;-79
2022/09/03 07:14:15;;;;;;;3.03;0.93;;;;;;;-145.69;100.00;70636.38;5075572;28;20213;-79
2022/09/03 07:16:42;;;;;;;2.35;1.15;;;;;;;-145.69;98.77;70630.41;5075502;28;20203;-81
2022/09/03 07:19:09;;;;;;;2.38;1.30;;;;;;;-145.69;100.00;70626.41;5075267;28;20234;-79
2022/09/03 07:21:36;;;;;;;1.40;1.20;;;;;;;-145.69;99.87;70614.47;5075237;28;20203;-79
2022/09/03 07:24:04;;;;;;;1.45;1.00;;;;;;;-145.69;100.00;70616.47;5075219;28;20205;-79
2022/09/03 07:26:35;;;;;;;1.67;0.98;;;;;;;-145.69;96.07;70602.56;5075211;28;20230;-80
2022/09/03 07:29:03;;;;;;;1.92;1.17;;;;;;;-145.69;94.38;70602.56;5075157;28;20199;-80
2022/09/03 07:31:32;;;;;;;1.75;1.02;;;;;;;-145.69;96.43;70600.56;5075154;28;20227;-78
2022/09/03 07:34:00;;;;;;;1.67;1.20;;;;;;;-145.69;92.00;70588.63;5074611;28;20633;-78
2022/09/03 07:36:28;;;;;;;1.42;1.00;;;;;;;-145.69;95.87;70594.59;5074823;28;20240;-80
2022/09/03 07:38:59;;;;;;;5.45;1.23;;;;;;;-145.69;94.52;70616.47;5075094;28;20657;-79
2022/09/03 07:41:26;;;;;;;2.38;1.08;;;;;;;-145.69;91.97;70610.50;5075034;28;20206;-79
2022/09/03 07:43:54;;;;;;;0.80;0.80;;;;;;;-145.69;95.22;70616.47;5070432;28;20203;-79
2022/09/03 07:46:23;;;;;;;1.25;1.00;;;;;;;-145.69;93.59;70624.44;5054763;28;20207;-79
2022/09/03 07:48:51;;;;;;;1.05;0.85;;;;;;;-145.69;95.12;70634.38;5054452;28;20253;-80
2022/09/03 07:51:18;;;;;;;1.00;0.90;;;;;;;-145.69;98.06;70642.34;5054759;28;20234;-79
2022/09/03 07:53:45;;;;;;;1.17;1.00;;;;;;;-145.69;92.76;70630.41;5054840;28;20199;-78
2022/09/03 07:56:12;;;;;;;2.28;0.95;;;;;;;-145.69;93.74;70638.34;5054671;28;20207;-80
2022/09/03 07:58:40;;;;;;;0.90;0.80;;;;;;;-145.69;94.95;70626.41;5054499;28;20195;-77
2022/09/03 08:01:10;;;;;;;3.75;0.93;;;;;;;-145.69;93.65;70614.47;5054506;28;20239;-77
2022/09/03 08:03:37;;;;;;;0.80;0.80;;;;;;;-145.69;93.55;70614.47;5060764;28;20198;-76
2022/09/03 08:06:05;;;;;;;1.20;0.93;;;;;;;-145.69;92.56;70594.59;5073461;28;20264;-76
2022/09/03 08:08:34;;;;;;;1.00;0.90;;;;;;;-145.69;93.16;70550.81;5074448;28;20205;-76
2022/09/03 08:11:09;;;;;;;3.50;1.00;;;;;;;-145.69;91.18;70495.13;5074350;28;20195;-76
2022/09/03 08:13:36;;;;;;;1.08;0.98;;;;;;;-145.69;86.48;70443.41;5074262;28;20202;-78
2022/09/03 08:16:04;;;;;;;1.92;1.13;;;;;;;-145.69;84.58;70411.56;5069605;28;20195;-76
2022/09/03 08:18:36;;;;;;;1.10;0.90;;;;;;;-145.69;83.63;70419.53;5060190;28;20207;-75
2022/09/03 08:21:07;;;;;;;1.10;0.98;;;;;;;-145.69;82.34;70435.44;5054177;28;20294;-76
2022/09/03 08:23:37;;;;;;;2.28;1.20;;;;;;;-145.69;90.20;70381.72;5054026;28;20196;-76
2022/09/03 08:26:04;;;;;;;1.05;0.95;;;;;;;-145.69;81.38;70359.84;5053848;28;20211;-77
2022/09/03 08:28:33;;;;;;;1.80;1.02;;;;;;;-145.69;81.99;70335.97;5054048;28;20207;-77
2022/09/03 08:31:05;;;;;;;1.40;1.30;;;;;;;-145.69;79.31;70300.16;5053726;28;20204;-79
2022/09/03 08:33:41;;;;;;;2.55;1.00;;;;;;;-145.69;79.68;70316.06;5053969;28;20203;-76
2022/09/03 08:36:18;;;;;;;1.85;0.95;;;;;;;-145.69;83.84;70349.91;5067730;28;20285;-77
2022/09/03 08:38:46;;;;;;;1.90;1.30;;;;;;;-145.69;79.99;70330.00;5073512;28;20210;-76
2022/09/03 08:41:15;;;;;;;1.25;1.08;;;;;;;-145.69;80.93;70361.84;5073641;28;20203;-75
2022/09/03 08:44:01;;;;;;;2.40;1.20;;;;;;;-145.69;85.97;70294.19;5073494;28;20199;-77
2022/09/03 08:46:37;;;;;;;1.88;1.00;;;;;;;-145.69;79.45;70300.16;5074027;28;20305;-79
2022/09/03 08:49:06;;;;;;;3.22;1.08;;;;;;;-145.69;76.36;70298.16;5073310;28;20245;-79
2022/09/03 08:51:39;;;;;;;2.00;1.00;;;;;;;-145.69;88.94;70256.41;5073322;28;20273;-77
2022/09/03 08:54:09;;;;;;;1.80;1.05;;;;;;;-145.69;78.80;70236.50;5073518;28;20199;-80
2022/09/03 08:56:40;;;;;;;1.73;1.17;;;;;;;-145.69;78.91;70180.81;5073467;28;20206;-77
2022/09/03 08:59:08;;;;;;;1.17;1.08;;;;;;;-145.69;71.90;70137.03;5073478;28;20226;-80
2022/09/03 09:01:43;;;;;;;1.40;1.05;;;;;;;-145.69;67.48;70073.38;5073285;28;20203;-80
2022/09/03 09:04:24;;;;;;;1.40;1.00;;;;;;;-145.69;68.22;70037.59;5073442;28;20198;-79
2022/09/03 09:06:56;;;;;;;1.35;0.90;;;;;;;-145.69;71.63;70045.53;5073325;28;20207;-77
2022/09/03 09:09:31;;;;;;;1.73;1.05;;;;;;;-145.69;66.78;70075.38;5073190;28;20194;-77
2022/09/03 09:12:10;;;;;;;3.83;1.30;;;;;;;-145.69;69.47;70141.03;5072958;28;20320;-77
2022/09/03 09:14:45;;;;;;;1.48;1.08;;;;;;;-145.69;71.89;70152.97;5073188;28;20264;-77
2022/09/03 09:17:32;;;;;;;2.58;1.65;;;;;;;-145.69;70.36;70194.72;5072858;28;20248;-78
2022/09/03 09:20:13;;;;;;;1.60;1.30;;;;;;;-145.69;70.85;70115.16;5072941;28;20206;-79
2022/09/03 09:22:43;;;;;;;3.53;1.40;;;;;;;-145.69;67.48;70103.22;5073178;28;20198;-79
2022/09/03 09:25:14;;;;;;;3.10;1.42;;;;;;;-145.69;69.35;70174.84;5073237;28;20201;-78
2022/09/03 09:27:50;;;;;;;1.90;1.38;;;;;;;-145.69;74.74;70282.25;5073257;28;20198;-76
2022/09/03 09:30:19;;;;;;;2.13;1.40;;;;;;;-145.69;76.34;70286.25;5072966;28;20199;-79
2022/09/03 09:32:47;;;;;;;1.73;1.40;;;;;;;-145.69;77.08;70248.44;5072748;28;20238;-80
2022/09/03 09:35:18;;;;;;;2.38;1.48;;;;;;;-145.69;72.22;70228.53;5072418;28;20554;-79
2022/09/03 09:37:52;;;;;;;2.20;1.50;;;;;;;-145.69;78.18;70226.56;5072838;28;20206;-80
2022/09/03 09:40:31;;;;;;;2.80;1.40;;;;;;;-145.69;72.17;70176.81;5072673;28;20672;-81
2022/09/03 09:43:20;;;;;;;1.95;1.23;;;;;;;-145.69;75.08;70212.63;5072750;28;20657;-78
2022/09/03 09:45:48;;;;;;;2.15;1.40;;;;;;;-145.69;75.18;70208.66;5055464;28;20202;-77
2022/09/03 09:48:25;;;;;;;3.45;1.60;;;;;;;-145.69;72.87;70178.81;5070947;28;20198;-77
2022/09/03 09:51:05;;;;;;;1.65;1.40;;;;;;;-145.69;71.59;70119.13;5052575;28;20242;-77
2022/09/03 09:53:33;;;;;;;2.78;1.70;;;;;;;-145.69;67.51;70107.19;5052517;28;20317;-79
2022/09/03 09:56:01;;;;;;;2.20;1.63;;;;;;;-145.69;73.87;70129.09;5052522;28;20286;-78
2022/09/03 09:58:30;;;;;;;2.22;1.40;;;;;;;-145.69;71.00;70150.97;5052978;28;20199;-79
2022/09/03 10:01:11;;;;;;;4.07;1.60;;;;;;;-145.69;73.18;70200.69;5052651;28;20676;-77
2022/09/03 10:03:42;;;;;;;1.95;1.48;;;;;;;-145.69;77.35;70214.63;5052919;28;20294;-80
2022/09/03 10:09:06;;;;;;;2.42;1.77;;;;;;;-145.69;72.86;70180.81;5071989;28;20434;-79
2022/09/03 10:11:38;;;;;;;4.40;1.77;;;;;;;-145.69;72.71;70162.91;5072540;28;20217;-79
2022/09/03 10:14:09;;;;;;;3.05;1.40;;;;;;;-145.69;72.34;70115.16;5072594;28;20203;-81
2022/09/03 10:16:41;;;;;;;4.25;2.10;;;;;;;-145.69;71.37;70081.34;5072368;28;20578;-78
2022/09/03 10:19:13;;;;;;;2.63;1.52;;;;;;;-145.69;70.33;70109.19;5071681;28;20439;-77
2022/09/03 10:21:47;;;;;;;1.30;1.20;;;;;;;-145.69;72.12;70115.16;5072596;28;20199;-76
2022/09/03 10:24:27;;;;;;;2.47;1.92;;;;;;;-145.69;68.07;70049.50;5072464;28;20198;-76
2022/09/03 10:26:55;;;;;;;1.85;1.63;;;;;;;-145.69;69.41;70045.53;5072295;28;20657;-77
2022/09/03 10:29:25;;;;;;;1.88;1.52;;;;;;;-145.69;71.32;70035.59;5075484;28;20202;-77
2022/09/03 10:32:02;;;;;;;2.38;1.58;;;;;;;-145.69;71.85;70156.94;5076179;28;20195;-77
2022/09/03 10:34:35;;;;;;;3.55;1.80;;;;;;;-145.69;77.35;70220.59;5075996;28;20534;-76
2022/09/03 10:37:19;;;;;;;2.88;1.65;;;;;;;-145.69;78.23;70242.47;5075996;28;20530;-78
2022/09/03 10:39:58;;;;;;;2.35;1.50;;;;;;;-145.69;81.49;70196.72;5076135;28;20207;-77
2022/09/03 10:42:38;;;;;;;3.42;1.77;;;;;;;-145.69;74.49;70160.91;5076201;28;20248;-77
2022/09/03 10:45:16;;;;;;;4.60;2.08;;;;;;;-145.69;74.96;70160.91;5076058;28;20202;-75
2022/09/03 10:48:04;;;;;;;4.03;1.63;;;;;;;-145.69;77.99;70168.88;5075816;28;20203;-76
2022/09/03 10:50:40;;;;;;;1.83;1.60;;;;;;;-145.69;83.37;70214.63;5075636;28;20230;-76
2022/09/03 10:53:16;;;;;;;1.92;1.50;;;;;;;-145.69;80.82;70260.38;5075824;28;20226;-77
2022/09/03 10:55:50;;;;;;;3.03;1.83;;;;;;;-145.69;86.04;70312.09;5075653;28;20202;-77
2022/09/03 10:58:40;;;;;;;2.75;1.98;;;;;;;-145.69;87.52;70343.94;5074661;28;20194;-77
2022/09/03 11:01:17;;;;;;;2.55;1.90;;;;;;;-145.69;92.38;70403.59;5075871;28;20226;-78
2022/09/03 11:03:47;;;;;;;3.33;1.35;;;;;;;-145.69;92.37;70475.22;5075641;28;20213;-76
2022/09/03 11:06:20;;;;;;;4.32;1.10;;;;;;;-145.69;89.39;70660.25;5075249;28;20191;-77
2022/09/03 11:08:58;;;;;;;1.92;1.30;;;;;;;-145.69;98.74;70805.47;5075654;28;20203;-77
2022/09/03 11:11:31;;;;;;;4.43;1.33;;;;;;;-145.69;100.00;71197.44;5075590;28;20202;-76
2022/09/03 11:14:05;;;;;;;8.70;1.60;;;;;;;-145.69;100.00;71306.88;5075106;28;20541;-77
2022/09/03 11:16:36;;;;;;;4.65;1.15;;;;;;;-145.69;100.00;71290.97;5075331;28;20217;-75
2022/09/03 11:19:06;;;;;;;3.05;1.20;;;;;;;-145.69;100.00;71271.06;5074849;28;20226;-75
2022/09/03 11:21:36;;;;;;;3.03;1.45;;;;;;;-145.69;100.00;71265.09;5075486;28;20202;-78
2022/09/03 11:24:12;;;;;;;2.28;1.38;;;;;;;-145.69;100.00;71255.16;5075429;28;20199;-76
2022/09/03 11:26:42;;;;;;;5.50;2.95;;;;;;;-145.69;100.00;71245.19;5075332;28;20207;-75
2022/09/03 11:29:12;;;;;;;4.88;1.98;;;;;;;-145.69;100.00;71201.41;5075148;28;20268;-75
2022/09/03 11:31:51;;;;;;;3.42;1.50;;;;;;;-145.69;100.00;71197.44;5075082;28;20245;-76